sensor_id;sensor_type;location;lat;lon;timestamp;pressure;altitude;pressure_sealevel;temperature;humidity
30856;BME280;17570;0.000;0.000;2023-06-22T00:01:24;97314.45;;;28.54;38.63
30856;BME280;17570;0.000;0.000;2023-06-22T00:03:51;97321.08;;;28.51;38.46
30856;BME280;17570;0.000;0.000;2023-06-22T00:06:19;97324.20;;;28.48;38.55
30856;BME280;17570;0.000;0.000;2023-06-22T00:08:46;97331.03;;;28.44;38.63
30856;BME280;17570;0.000;0.000;2023-06-22T00:11:14;97320.22;;;28.39;38.78
30856;BME280;17570;0.000;0.000;2023-06-22T00:13:42;97320.89;;;28.34;38.84
30856;BME280;17570;0.000;0.000;2023-06-22T00:16:09;97324.38;;;28.35;39.01
30856;BME280;17570;0.000;0.000;2023-06-22T00:18:36;97321.70;;;28.35;38.93
30856;BME280;17570;0.000;0.000;2023-06-22T00:21:04;97327.48;;;28.32;38.90
30856;BME280;17570;0.000;0.000;2023-06-22T00:23:32;97326.67;;;28.31;38.97
30856;BME280;17570;0.000;0.000;2023-06-22T00:26:00;97320.97;;;28.28;38.99
30856;BME280;17570;0.000;0.000;2023-06-22T00:28:28;97323.50;;;28.22;39.03
30856;BME280;17570;0.000;0.000;2023-06-22T00:30:55;97325.70;;;28.26;39.21
30856;BME280;17570;0.000;0.000;2023-06-22T00:33:24;97322.45;;;28.23;39.11
30856;BME280;17570;0.000;0.000;2023-06-22T00:35:52;97330.91;;;28.20;39.16
30856;BME280;17570;0.000;0.000;2023-06-22T00:38:20;97327.42;;;28.20;39.24
30856;BME280;17570;0.000;0.000;2023-06-22T00:40:47;97328.23;;;28.20;39.34
30856;BME280;17570;0.000;0.000;2023-06-22T00:43:15;97331.95;;;28.19;39.32
30856;BME280;17570;0.000;0.000;2023-06-22T00:45:42;97333.00;;;28.18;39.34
30856;BME280;17570;0.000;0.000;2023-06-22T00:48:10;97332.77;;;28.20;39.27
30856;BME280;17570;0.000;0.000;2023-06-22T00:50:39;97321.13;;;28.14;39.43
30856;BME280;17570;0.000;0.000;2023-06-22T00:53:08;97325.90;;;28.12;39.23
30856;BME280;17570;0.000;0.000;2023-06-22T00:55:36;97326.47;;;28.14;39.34
30856;BME280;17570;0.000;0.000;2023-06-22T00:58:05;97317.05;;;28.12;39.59
30856;BME280;17570;0.000;0.000;2023-06-22T01:00:34;97310.89;;;28.11;39.65
30856;BME280;17570;0.000;0.000;2023-06-22T01:03:02;97307.66;;;28.09;39.70
30856;BME280;17570;0.000;0.000;2023-06-22T01:05:30;97308.09;;;28.06;39.75
30856;BME280;17570;0.000;0.000;2023-06-22T01:08:03;97302.17;;;28.04;39.82
30856;BME280;17570;0.000;0.000;2023-06-22T01:13:06;97304.03;;;28.04;39.59
30856;BME280;17570;0.000;0.000;2023-06-22T01:15:39;97302.47;;;27.96;39.82
30856;BME280;17570;0.000;0.000;2023-06-22T01:18:05;97306.77;;;27.97;39.83
30856;BME280;17570;0.000;0.000;2023-06-22T01:20:35;97305.38;;;27.94;39.93
30856;BME280;17570;0.000;0.000;2023-06-22T01:31:00;97282.33;;;27.82;40.03
30856;BME280;17570;0.000;0.000;2023-06-22T01:33:33;97277.57;;;27.84;39.97
30856;BME280;17570;0.000;0.000;2023-06-22T01:36:01;97284.56;;;27.85;39.88
30856;BME280;17570;0.000;0.000;2023-06-22T01:38:29;97291.95;;;27.83;39.94
30856;BME280;17570;0.000;0.000;2023-06-22T01:40:58;97287.67;;;27.82;39.97
30856;BME280;17570;0.000;0.000;2023-06-22T01:43:26;97292.19;;;27.81;40.01
30856;BME280;17570;0.000;0.000;2023-06-22T01:45:55;97295.91;;;27.80;40.07
30856;BME280;17570;0.000;0.000;2023-06-22T01:48:23;97299.82;;;27.78;40.14
30856;BME280;17570;0.000;0.000;2023-06-22T01:50:52;97304.58;;;27.76;40.18
30856;BME280;17570;0.000;0.000;2023-06-22T01:53:21;97301.44;;;27.79;39.98
30856;BME280;17570;0.000;0.000;2023-06-22T01:55:51;97296.57;;;27.76;40.09
30856;BME280;17570;0.000;0.000;2023-06-22T01:58:20;97301.30;;;27.74;40.08
30856;BME280;17570;0.000;0.000;2023-06-22T02:00:57;97301.73;;;27.70;40.10
30856;BME280;17570;0.000;0.000;2023-06-22T02:03:26;97305.41;;;27.69;40.04
30856;BME280;17570;0.000;0.000;2023-06-22T02:05:55;97313.27;;;27.64;40.16
30856;BME280;17570;0.000;0.000;2023-06-22T02:08:22;97321.73;;;27.61;40.28
30856;BME280;17570;0.000;0.000;2023-06-22T02:10:50;97320.08;;;27.60;40.29
30856;BME280;17570;0.000;0.000;2023-06-22T02:13:20;97312.31;;;27.59;40.26
30856;BME280;17570;0.000;0.000;2023-06-22T02:15:48;97318.26;;;27.61;40.38
30856;BME280;17570;0.000;0.000;2023-06-22T02:18:15;97324.41;;;27.61;40.14
30856;BME280;17570;0.000;0.000;2023-06-22T02:20:43;97321.73;;;27.61;40.33
30856;BME280;17570;0.000;0.000;2023-06-22T02:23:10;97324.83;;;27.58;40.19
30856;BME280;17570;0.000;0.000;2023-06-22T02:25:38;97325.06;;;27.57;40.21
30856;BME280;17570;0.000;0.000;2023-06-22T02:28:06;97325.27;;;27.55;40.42
30856;BME280;17570;0.000;0.000;2023-06-22T02:30:33;97327.73;;;27.57;40.40
30856;BME280;17570;0.000;0.000;2023-06-22T02:33:01;97331.64;;;27.54;40.35
30856;BME280;17570;0.000;0.000;2023-06-22T02:35:28;97334.16;;;27.49;40.54
30856;BME280;17570;0.000;0.000;2023-06-22T02:38:01;97332.53;;;27.48;40.41
30856;BME280;17570;0.000;0.000;2023-06-22T02:40:29;97330.53;;;27.43;40.57
30856;BME280;17570;0.000;0.000;2023-06-22T02:42:57;97332.97;;;27.45;40.56
30856;BME280;17570;0.000;0.000;2023-06-22T02:45:29;97324.16;;;27.44;40.57
30856;BME280;17570;0.000;0.000;2023-06-22T02:47:56;97329.10;;;27.41;40.45
30856;BME280;17570;0.000;0.000;2023-06-22T02:50:24;97317.42;;;27.42;40.51
30856;BME280;17570;0.000;0.000;2023-06-22T02:52:52;97326.90;;;27.38;40.59
30856;BME280;17570;0.000;0.000;2023-06-22T02:55:20;97318.90;;;27.38;40.74
30856;BME280;17570;0.000;0.000;2023-06-22T02:57:49;97322.58;;;27.37;40.79
30856;BME280;17570;0.000;0.000;2023-06-22T03:00:19;97329.41;;;27.33;40.86
30856;BME280;17570;0.000;0.000;2023-06-22T03:02:48;97328.56;;;27.32;40.94
30856;BME280;17570;0.000;0.000;2023-06-22T03:05:16;97321.61;;;27.31;40.90
30856;BME280;17570;0.000;0.000;2023-06-22T03:07:44;97325.70;;;27.34;41.00
30856;BME280;17570;0.000;0.000;2023-06-22T03:10:12;97322.00;;;27.35;40.96
30856;BME280;17570;0.000;0.000;2023-06-22T03:12:41;97323.03;;;27.34;40.99
30856;BME280;17570;0.000;0.000;2023-06-22T03:15:11;97321.41;;;27.33;41.00
30856;BME280;17570;0.000;0.000;2023-06-22T03:17:39;97323.47;;;27.31;40.99
30856;BME280;17570;0.000;0.000;2023-06-22T03:20:08;97325.86;;;27.39;41.25
30856;BME280;17570;0.000;0.000;2023-06-22T03:22:40;97334.69;;;27.58;42.72
30856;BME280;17570;0.000;0.000;2023-06-22T03:25:09;97332.61;;;27.60;42.53
30856;BME280;17570;0.000;0.000;2023-06-22T03:27:37;97335.50;;;27.58;42.04
30856;BME280;17570;0.000;0.000;2023-06-22T03:30:09;97332.69;;;27.53;41.95
30856;BME280;17570;0.000;0.000;2023-06-22T03:32:36;97333.11;;;27.50;41.92
30856;BME280;17570;0.000;0.000;2023-06-22T03:35:05;97331.11;;;27.45;41.79
30856;BME280;17570;0.000;0.000;2023-06-22T03:37:33;97330.30;;;27.45;41.72
30856;BME280;17570;0.000;0.000;2023-06-22T03:40:01;97336.09;;;27.42;41.75
30856;BME280;17570;0.000;0.000;2023-06-22T03:42:33;97338.76;;;27.42;41.80
30856;BME280;17570;0.000;0.000;2023-06-22T03:45:02;97337.72;;;27.43;41.77
30856;BME280;17570;0.000;0.000;2023-06-22T03:47:30;97348.38;;;27.43;41.77
30856;BME280;17570;0.000;0.000;2023-06-22T03:49:58;97355.11;;;27.45;41.81
30856;BME280;17570;0.000;0.000;2023-06-22T03:52:25;97356.16;;;27.44;41.98
30856;BME280;17570;0.000;0.000;2023-06-22T03:54:53;97356.73;;;27.46;41.85
30856;BME280;17570;0.000;0.000;2023-06-22T03:57:20;97357.58;;;27.47;42.02
30856;BME280;17570;0.000;0.000;2023-06-22T03:59:48;97356.30;;;27.50;41.92
30856;BME280;17570;0.000;0.000;2023-06-22T04:02:15;97353.87;;;27.48;41.91
30856;BME280;17570;0.000;0.000;2023-06-22T04:04:43;97351.58;;;27.52;42.05
30856;BME280;17570;0.000;0.000;2023-06-22T04:07:10;97348.69;;;27.53;42.01
30856;BME280;17570;0.000;0.000;2023-06-22T04:09:37;97344.84;;;27.67;42.45
30856;BME280;17570;0.000;0.000;2023-06-22T04:12:10;97345.70;;;27.86;43.03
30856;BME280;17570;0.000;0.000;2023-06-22T04:14:38;97343.27;;;27.85;43.13
30856;BME280;17570;0.000;0.000;2023-06-22T04:17:05;97344.88;;;27.86;43.32
30856;BME280;17570;0.000;0.000;2023-06-22T04:19:32;97348.94;;;27.88;43.18
30856;BME280;17570;0.000;0.000;2023-06-22T04:22:00;97351.17;;;27.91;43.28
30856;BME280;17570;0.000;0.000;2023-06-22T04:24:27;97355.03;;;27.95;43.22
30856;BME280;17570;0.000;0.000;2023-06-22T04:26:55;97336.94;;;27.97;43.26
30856;BME280;17570;0.000;0.000;2023-06-22T04:29:22;97341.02;;;28.00;43.18
30856;BME280;17570;0.000;0.000;2023-06-22T04:31:54;97333.02;;;28.00;43.16
30856;BME280;17570;0.000;0.000;2023-06-22T04:34:24;97331.16;;;28.01;43.17
30856;BME280;17570;0.000;0.000;2023-06-22T04:36:54;97330.92;;;28.02;43.15
30856;BME280;17570;0.000;0.000;2023-06-22T04:39:21;97333.39;;;28.04;43.27
30856;BME280;17570;0.000;0.000;2023-06-22T04:41:49;97340.26;;;28.11;43.23
30856;BME280;17570;0.000;0.000;2023-06-22T04:44:18;97338.57;;;28.17;43.15
30856;BME280;17570;0.000;0.000;2023-06-22T04:46:56;97345.30;;;28.19;43.18
30856;BME280;17570;0.000;0.000;2023-06-22T04:49:28;97339.38;;;28.17;43.19
30856;BME280;17570;0.000;0.000;2023-06-22T04:51:58;97339.72;;;28.21;43.42
30856;BME280;17570;0.000;0.000;2023-06-22T04:54:26;97338.23;;;28.25;43.45
30856;BME280;17570;0.000;0.000;2023-06-22T04:56:53;97349.42;;;28.34;43.43
30856;BME280;17570;0.000;0.000;2023-06-22T04:59:24;97343.07;;;28.35;43.42
30856;BME280;17570;0.000;0.000;2023-06-22T05:01:59;97341.37;;;28.40;43.45
30856;BME280;17570;0.000;0.000;2023-06-22T05:04:23;97336.38;;;28.44;42.85
30856;BME280;17570;0.000;0.000;2023-06-22T05:06:50;97342.08;;;28.47;42.93
30856;BME280;17570;0.000;0.000;2023-06-22T05:09:18;97339.34;;;28.54;43.11
30856;BME280;17570;0.000;0.000;2023-06-22T05:11:46;97341.09;;;28.60;43.10
30856;BME280;17570;0.000;0.000;2023-06-22T05:14:13;97345.52;;;28.66;43.34
30856;BME280;17570;0.000;0.000;2023-06-22T05:16:41;97344.62;;;28.72;43.38
30856;BME280;17570;0.000;0.000;2023-06-22T05:19:09;97346.24;;;28.73;43.18
30856;BME280;17570;0.000;0.000;2023-06-22T05:21:36;97352.77;;;28.78;43.45
30856;BME280;17570;0.000;0.000;2023-06-22T05:24:04;97352.89;;;28.83;43.57
30856;BME280;17570;0.000;0.000;2023-06-22T05:26:33;97350.47;;;28.93;43.22
30856;BME280;17570;0.000;0.000;2023-06-22T05:29:01;97353.30;;;28.98;43.54
30856;BME280;17570;0.000;0.000;2023-06-22T05:31:29;97348.06;;;29.03;43.54
30856;BME280;17570;0.000;0.000;2023-06-22T05:33:57;97356.33;;;29.13;43.13
30856;BME280;17570;0.000;0.000;2023-06-22T05:36:26;97354.59;;;29.19;43.55
30856;BME280;17570;0.000;0.000;2023-06-22T05:38:53;97348.69;;;29.29;43.70
30856;BME280;17570;0.000;0.000;2023-06-22T05:41:21;97348.44;;;29.42;43.22
30856;BME280;17570;0.000;0.000;2023-06-22T05:43:48;97359.39;;;29.52;42.89
30856;BME280;17570;0.000;0.000;2023-06-22T05:46:16;97362.54;;;29.61;42.51
30856;BME280;17570;0.000;0.000;2023-06-22T05:48:46;97355.22;;;29.68;42.91
30856;BME280;17570;0.000;0.000;2023-06-22T05:51:13;97343.81;;;29.72;42.53
30856;BME280;17570;0.000;0.000;2023-06-22T05:53:40;97352.19;;;29.76;42.42
30856;BME280;17570;0.000;0.000;2023-06-22T05:56:08;97353.11;;;29.82;42.16
30856;BME280;17570;0.000;0.000;2023-06-22T05:58:35;97354.27;;;29.86;42.09
30856;BME280;17570;0.000;0.000;2023-06-22T06:01:03;97357.05;;;29.91;42.20
30856;BME280;17570;0.000;0.000;2023-06-22T06:03:30;97361.94;;;29.94;42.22
30856;BME280;17570;0.000;0.000;2023-06-22T06:05:58;97360.64;;;29.96;42.03
30856;BME280;17570;0.000;0.000;2023-06-22T06:08:25;97353.30;;;30.04;41.40
30856;BME280;17570;0.000;0.000;2023-06-22T06:10:53;97352.91;;;30.12;41.46
30856;BME280;17570;0.000;0.000;2023-06-22T06:13:21;97355.72;;;30.17;41.48
30856;BME280;17570;0.000;0.000;2023-06-22T06:15:48;97351.52;;;30.21;41.23
30856;BME280;17570;0.000;0.000;2023-06-22T06:18:17;97358.84;;;30.26;41.21
30856;BME280;17570;0.000;0.000;2023-06-22T06:20:45;97357.31;;;30.30;41.46
30856;BME280;17570;0.000;0.000;2023-06-22T06:23:15;97353.58;;;30.31;42.10
30856;BME280;17570;0.000;0.000;2023-06-22T06:25:42;97354.64;;;30.30;42.64
30856;BME280;17570;0.000;0.000;2023-06-22T06:28:09;97346.70;;;30.35;42.49
30856;BME280;17570;0.000;0.000;2023-06-22T06:30:36;97347.60;;;30.40;42.70
30856;BME280;17570;0.000;0.000;2023-06-22T06:33:04;97358.44;;;30.45;42.93
30856;BME280;17570;0.000;0.000;2023-06-22T06:35:33;97357.66;;;30.62;43.59
30856;BME280;17570;0.000;0.000;2023-06-22T06:38:01;97361.69;;;30.76;43.75
30856;BME280;17570;0.000;0.000;2023-06-22T06:40:28;97369.01;;;30.81;43.80
30856;BME280;17570;0.000;0.000;2023-06-22T06:42:56;97366.08;;;30.82;43.65
30856;BME280;17570;0.000;0.000;2023-06-22T06:45:23;97368.53;;;30.84;43.20
30856;BME280;17570;0.000;0.000;2023-06-22T06:47:51;97369.82;;;30.81;43.85
30856;BME280;17570;0.000;0.000;2023-06-22T06:50:19;97370.63;;;30.82;43.39
30856;BME280;17570;0.000;0.000;2023-06-22T06:52:47;97373.56;;;30.80;43.01
30856;BME280;17570;0.000;0.000;2023-06-22T06:55:16;97367.39;;;30.80;43.31
30856;BME280;17570;0.000;0.000;2023-06-22T06:57:44;97370.54;;;30.77;42.84
30856;BME280;17570;0.000;0.000;2023-06-22T07:00:13;97375.43;;;30.80;41.70
30856;BME280;17570;0.000;0.000;2023-06-22T07:02:42;97369.82;;;30.81;40.72
30856;BME280;17570;0.000;0.000;2023-06-22T07:05:10;97363.73;;;30.86;41.18
30856;BME280;17570;0.000;0.000;2023-06-22T07:07:38;97376.75;;;30.94;40.85
30856;BME280;17570;0.000;0.000;2023-06-22T07:10:06;97369.13;;;31.03;41.64
30856;BME280;17570;0.000;0.000;2023-06-22T07:12:34;97377.25;;;31.08;41.31
30856;BME280;17570;0.000;0.000;2023-06-22T07:15:05;97367.75;;;31.17;41.37
30856;BME280;17570;0.000;0.000;2023-06-22T07:17:33;97371.31;;;31.22;41.44
30856;BME280;17570;0.000;0.000;2023-06-22T07:20:01;97368.27;;;31.31;39.89
30856;BME280;17570;0.000;0.000;2023-06-22T07:22:30;97368.34;;;31.36;39.16
30856;BME280;17570;0.000;0.000;2023-06-22T07:24:58;97364.34;;;31.38;39.19
30856;BME280;17570;0.000;0.000;2023-06-22T07:27:25;97370.91;;;31.47;38.86
30856;BME280;17570;0.000;0.000;2023-06-22T07:29:53;97368.56;;;31.51;38.36
30856;BME280;17570;0.000;0.000;2023-06-22T07:32:21;97366.75;;;31.57;38.09
30856;BME280;17570;0.000;0.000;2023-06-22T07:34:49;97359.29;;;31.59;38.30
30856;BME280;17570;0.000;0.000;2023-06-22T07:37:16;97356.42;;;31.65;37.89
30856;BME280;17570;0.000;0.000;2023-06-22T07:39:44;97358.69;;;31.73;37.92
30856;BME280;17570;0.000;0.000;2023-06-22T07:42:11;97353.38;;;31.79;37.96
30856;BME280;17570;0.000;0.000;2023-06-22T07:44:39;97355.94;;;31.85;38.25
30856;BME280;17570;0.000;0.000;2023-06-22T07:47:06;97353.86;;;31.92;37.75
30856;BME280;17570;0.000;0.000;2023-06-22T07:49:34;97358.97;;;31.94;37.81
30856;BME280;17570;0.000;0.000;2023-06-22T07:52:01;97351.81;;;31.99;38.00
30856;BME280;17570;0.000;0.000;2023-06-22T07:54:28;97351.06;;;32.04;38.54
30856;BME280;17570;0.000;0.000;2023-06-22T07:56:56;97350.31;;;32.09;37.54
30856;BME280;17570;0.000;0.000;2023-06-22T07:59:23;97346.05;;;32.13;37.26
30856;BME280;17570;0.000;0.000;2023-06-22T08:01:51;97352.05;;;32.20;36.69
30856;BME280;17570;0.000;0.000;2023-06-22T08:04:18;97344.86;;;32.25;36.66
30856;BME280;17570;0.000;0.000;2023-06-22T08:06:49;97344.91;;;32.31;37.26
30856;BME280;17570;0.000;0.000;2023-06-22T08:09:16;97347.19;;;32.39;37.22
30856;BME280;17570;0.000;0.000;2023-06-22T08:11:44;97344.81;;;32.42;36.47
30856;BME280;17570;0.000;0.000;2023-06-22T08:14:11;97353.73;;;32.48;36.17
30856;BME280;17570;0.000;0.000;2023-06-22T08:16:59;97348.14;;;32.55;35.34
30856;BME280;17570;0.000;0.000;2023-06-22T08:19:26;97357.49;;;32.47;35.67
30856;BME280;17570;0.000;0.000;2023-06-22T08:21:54;97309.87;;;32.20;36.20
30856;BME280;17570;0.000;0.000;2023-06-22T08:24:21;97356.88;;;32.67;35.77
30856;BME280;17570;0.000;0.000;2023-06-22T08:26:51;97361.23;;;32.73;36.04
30856;BME280;17570;0.000;0.000;2023-06-22T08:29:17;97357.78;;;32.78;35.96
30856;BME280;17570;0.000;0.000;2023-06-22T08:31:45;97359.97;;;32.81;35.44
30856;BME280;17570;0.000;0.000;2023-06-22T08:34:13;97367.82;;;32.87;35.17
30856;BME280;17570;0.000;0.000;2023-06-22T08:36:41;97357.70;;;32.94;34.82
30856;BME280;17570;0.000;0.000;2023-06-22T08:39:10;97364.51;;;33.02;35.22
30856;BME280;17570;0.000;0.000;2023-06-22T08:41:37;97357.52;;;33.06;34.55
30856;BME280;17570;0.000;0.000;2023-06-22T08:44:05;97353.56;;;33.14;34.86
30856;BME280;17570;0.000;0.000;2023-06-22T08:46:32;97345.28;;;33.20;35.14
30856;BME280;17570;0.000;0.000;2023-06-22T08:49:00;97350.70;;;33.25;34.64
30856;BME280;17570;0.000;0.000;2023-06-22T08:51:27;97351.84;;;33.35;34.39
30856;BME280;17570;0.000;0.000;2023-06-22T08:53:55;97347.54;;;33.39;34.44
30856;BME280;17570;0.000;0.000;2023-06-22T08:56:23;97353.55;;;33.46;34.55
30856;BME280;17570;0.000;0.000;2023-06-22T08:58:50;97350.39;;;33.54;34.27
30856;BME280;17570;0.000;0.000;2023-06-22T09:01:18;97349.91;;;33.62;34.45
30856;BME280;17570;0.000;0.000;2023-06-22T09:03:45;97348.36;;;33.76;34.11
30856;BME280;17570;0.000;0.000;2023-06-22T09:06:14;97346.23;;;33.84;34.80
30856;BME280;17570;0.000;0.000;2023-06-22T09:08:42;97346.25;;;33.89;34.19
30856;BME280;17570;0.000;0.000;2023-06-22T09:11:10;97342.56;;;33.95;34.95
30856;BME280;17570;0.000;0.000;2023-06-22T09:13:37;97337.45;;;34.04;34.27
30856;BME280;17570;0.000;0.000;2023-06-22T09:16:05;97349.09;;;34.14;35.18
30856;BME280;17570;0.000;0.000;2023-06-22T09:18:38;97341.31;;;34.23;34.38
30856;BME280;17570;0.000;0.000;2023-06-22T09:21:02;97342.67;;;34.31;34.26
30856;BME280;17570;0.000;0.000;2023-06-22T09:23:30;97335.16;;;34.38;33.64
30856;BME280;17570;0.000;0.000;2023-06-22T09:25:57;97333.28;;;34.43;34.05
30856;BME280;17570;0.000;0.000;2023-06-22T09:28:25;97329.53;;;34.49;34.00
30856;BME280;17570;0.000;0.000;2023-06-22T09:30:52;97334.69;;;34.56;34.34
30856;BME280;17570;0.000;0.000;2023-06-22T09:33:21;97329.83;;;34.63;33.69
30856;BME280;17570;0.000;0.000;2023-06-22T09:35:49;97329.83;;;34.68;33.76
30856;BME280;17570;0.000;0.000;2023-06-22T09:38:17;97322.02;;;34.77;33.86
30856;BME280;17570;0.000;0.000;2023-06-22T09:40:44;97328.78;;;34.85;33.88
30856;BME280;17570;0.000;0.000;2023-06-22T09:43:12;97323.11;;;34.91;33.61
30856;BME280;17570;0.000;0.000;2023-06-22T09:45:39;97333.67;;;34.98;33.15
30856;BME280;17570;0.000;0.000;2023-06-22T09:48:07;97328.80;;;35.05;33.44
30856;BME280;17570;0.000;0.000;2023-06-22T09:50:36;97329.60;;;35.11;33.04
30856;BME280;17570;0.000;0.000;2023-06-22T09:53:03;97337.98;;;35.14;33.56
30856;BME280;17570;0.000;0.000;2023-06-22T09:55:31;97332.57;;;35.19;33.89
30856;BME280;17570;0.000;0.000;2023-06-22T09:57:58;97332.56;;;35.24;33.32
30856;BME280;17570;0.000;0.000;2023-06-22T10:00:26;97327.44;;;35.28;32.70
30856;BME280;17570;0.000;0.000;2023-06-22T10:02:53;97329.32;;;35.33;32.64
30856;BME280;17570;0.000;0.000;2023-06-22T10:05:22;97337.41;;;35.38;32.86
30856;BME280;17570;0.000;0.000;2023-06-22T10:07:49;97330.39;;;35.42;33.05
30856;BME280;17570;0.000;0.000;2023-06-22T10:10:17;97327.70;;;35.47;32.65
30856;BME280;17570;0.000;0.000;2023-06-22T10:12:48;97332.00;;;35.53;32.63
30856;BME280;17570;0.000;0.000;2023-06-22T10:15:16;97333.63;;;35.59;32.96
30856;BME280;17570;0.000;0.000;2023-06-22T10:17:43;97340.64;;;35.60;33.20
30856;BME280;17570;0.000;0.000;2023-06-22T10:20:11;97338.21;;;35.64;32.07
30856;BME280;17570;0.000;0.000;2023-06-22T10:22:43;97335.22;;;35.65;32.42
30856;BME280;17570;0.000;0.000;2023-06-22T10:29:07;97329.32;;;35.33;33.57
30856;BME280;17570;0.000;0.000;2023-06-22T12:21:15;97314.83;;;40.18;27.66
30856;BME280;17570;0.000;0.000;2023-06-22T12:23:43;97311.73;;;40.11;27.48
30856;BME280;17570;0.000;0.000;2023-06-22T12:26:10;97308.98;;;40.25;27.29
30856;BME280;17570;0.000;0.000;2023-06-22T12:28:38;97310.80;;;40.29;27.57
30856;BME280;17570;0.000;0.000;2023-06-22T12:31:05;97309.96;;;40.29;26.70
30856;BME280;17570;0.000;0.000;2023-06-22T12:33:33;97304.35;;;40.25;25.97
30856;BME280;17570;0.000;0.000;2023-06-22T12:36:00;97305.06;;;40.17;26.31
30856;BME280;17570;0.000;0.000;2023-06-22T12:38:28;97300.86;;;40.11;26.70
30856;BME280;17570;0.000;0.000;2023-06-22T12:40:55;97299.42;;;40.00;26.27
30856;BME280;17570;0.000;0.000;2023-06-22T12:43:22;97303.47;;;39.89;26.12
30856;BME280;17570;0.000;0.000;2023-06-22T12:45:50;97299.86;;;39.79;26.65
30856;BME280;17570;0.000;0.000;2023-06-22T12:48:17;97305.19;;;39.71;26.38
30856;BME280;17570;0.000;0.000;2023-06-22T12:50:45;97299.62;;;39.62;26.58
30856;BME280;17570;0.000;0.000;2023-06-22T12:53:14;97292.78;;;39.51;26.44
30856;BME280;17570;0.000;0.000;2023-06-22T12:55:41;97299.00;;;39.38;26.03
30856;BME280;17570;0.000;0.000;2023-06-22T12:58:09;97292.44;;;39.25;26.27
30856;BME280;17570;0.000;0.000;2023-06-22T13:00:37;97289.58;;;39.16;27.30
30856;BME280;17570;0.000;0.000;2023-06-22T13:03:05;97291.09;;;39.09;27.72
30856;BME280;17570;0.000;0.000;2023-06-22T13:05:32;97286.55;;;39.04;27.56
30856;BME280;17570;0.000;0.000;2023-06-22T13:08:01;97281.48;;;38.97;26.34
30856;BME280;17570;0.000;0.000;2023-06-22T13:10:28;97280.99;;;38.95;26.72
30856;BME280;17570;0.000;0.000;2023-06-22T13:12:56;97281.27;;;38.94;26.59
30856;BME280;17570;0.000;0.000;2023-06-22T13:15:25;97275.84;;;38.94;27.28
30856;BME280;17570;0.000;0.000;2023-06-22T13:17:55;97276.95;;;38.93;27.66
30856;BME280;17570;0.000;0.000;2023-06-22T13:20:22;97270.41;;;38.94;27.37
30856;BME280;17570;0.000;0.000;2023-06-22T13:22:50;97276.37;;;38.96;27.64
30856;BME280;17570;0.000;0.000;2023-06-22T13:25:17;97274.14;;;38.98;28.15
30856;BME280;17570;0.000;0.000;2023-06-22T13:27:47;97270.35;;;38.99;27.75
30856;BME280;17570;0.000;0.000;2023-06-22T13:30:15;97272.23;;;38.98;27.00
30856;BME280;17570;0.000;0.000;2023-06-22T13:32:42;97278.68;;;39.02;26.37
30856;BME280;17570;0.000;0.000;2023-06-22T13:35:10;97283.31;;;39.02;26.19
30856;BME280;17570;0.000;0.000;2023-06-22T13:37:37;97284.42;;;39.01;27.83
30856;BME280;17570;0.000;0.000;2023-06-22T13:40:05;97275.26;;;38.97;26.98
30856;BME280;17570;0.000;0.000;2023-06-22T13:42:33;97275.04;;;38.93;26.96
30856;BME280;17570;0.000;0.000;2023-06-22T13:45:01;97274.33;;;38.88;26.78
30856;BME280;17570;0.000;0.000;2023-06-22T13:47:29;97274.50;;;38.77;26.51
30856;BME280;17570;0.000;0.000;2023-06-22T13:49:57;97266.72;;;38.71;26.78
30856;BME280;17570;0.000;0.000;2023-06-22T13:52:24;97274.12;;;38.65;26.91
30856;BME280;17570;0.000;0.000;2023-06-22T13:54:52;97270.46;;;38.56;27.25
30856;BME280;17570;0.000;0.000;2023-06-22T13:57:19;97264.84;;;38.52;27.52
30856;BME280;17570;0.000;0.000;2023-06-22T13:59:47;97272.18;;;38.52;27.16
30856;BME280;17570;0.000;0.000;2023-06-22T14:02:14;97267.66;;;38.61;26.89
30856;BME280;17570;0.000;0.000;2023-06-22T14:04:42;97265.16;;;38.84;28.27
30856;BME280;17570;0.000;0.000;2023-06-22T14:07:09;97273.16;;;39.08;28.07
30856;BME280;17570;0.000;0.000;2023-06-22T14:09:37;97268.30;;;39.23;27.74
30856;BME280;17570;0.000;0.000;2023-06-22T14:12:05;97267.62;;;39.32;27.33
30856;BME280;17570;0.000;0.000;2023-06-22T14:14:33;97262.27;;;39.40;27.46
30856;BME280;17570;0.000;0.000;2023-06-22T14:17:00;97263.17;;;39.49;27.66
30856;BME280;17570;0.000;0.000;2023-06-22T14:19:28;97262.99;;;39.60;27.38
30856;BME280;17570;0.000;0.000;2023-06-22T14:21:55;97258.05;;;39.62;27.34
30856;BME280;17570;0.000;0.000;2023-06-22T14:24:28;97256.23;;;39.57;27.21
30856;BME280;17570;0.000;0.000;2023-06-22T14:26:55;97258.36;;;39.46;26.58
30856;BME280;17570;0.000;0.000;2023-06-22T14:29:23;97262.08;;;39.37;26.71
30856;BME280;17570;0.000;0.000;2023-06-22T14:31:50;97260.44;;;39.22;26.03
30856;BME280;17570;0.000;0.000;2023-06-22T14:34:18;97253.97;;;39.04;25.34
30856;BME280;17570;0.000;0.000;2023-06-22T14:36:45;97260.17;;;38.91;26.21
30856;BME280;17570;0.000;0.000;2023-06-22T14:39:12;97250.63;;;38.74;27.84
30856;BME280;17570;0.000;0.000;2023-06-22T14:41:40;97250.97;;;38.54;28.04
30856;BME280;17570;0.000;0.000;2023-06-22T14:44:07;97248.05;;;38.32;28.02
30856;BME280;17570;0.000;0.000;2023-06-22T14:46:35;97244.82;;;38.11;29.33
30856;BME280;17570;0.000;0.000;2023-06-22T14:49:02;97246.19;;;37.89;29.72
30856;BME280;17570;0.000;0.000;2023-06-22T14:51:30;97241.22;;;37.72;30.32
30856;BME280;17570;0.000;0.000;2023-06-22T14:53:57;97242.02;;;37.54;30.41
30856;BME280;17570;0.000;0.000;2023-06-22T14:56:25;97227.26;;;37.41;31.73
30856;BME280;17570;0.000;0.000;2023-06-22T14:58:52;97236.60;;;37.25;31.49
30856;BME280;17570;0.000;0.000;2023-06-22T15:01:20;97228.53;;;37.20;31.13
30856;BME280;17570;0.000;0.000;2023-06-22T15:03:47;97224.33;;;37.09;32.02
30856;BME280;17570;0.000;0.000;2023-06-22T15:06:15;97217.93;;;36.99;32.69
30856;BME280;17570;0.000;0.000;2023-06-22T15:08:43;97215.30;;;36.89;32.76
30856;BME280;17570;0.000;0.000;2023-06-22T15:11:10;97228.69;;;36.75;33.68
30856;BME280;17570;0.000;0.000;2023-06-22T15:13:41;97232.80;;;36.68;33.87
30856;BME280;17570;0.000;0.000;2023-06-22T15:16:09;97229.09;;;36.59;33.75
30856;BME280;17570;0.000;0.000;2023-06-22T15:18:36;97227.23;;;36.54;34.21